createdAt,value
2022-10-31T00:01:50.885Z,15.73
2022-10-31T00:07:00.426Z,15.93
2022-10-31T00:11:59.433Z,15.95
2022-10-31T00:17:01.135Z,16.12
2022-10-31T00:22:00.180Z,15.84
2022-10-31T00:27:02.067Z,16.08
2022-10-31T00:32:00.883Z,15.87
2022-10-31T00:37:03.080Z,15.66
2022-10-31T00:42:01.548Z,15.68
2022-10-31T00:47:02.837Z,15.85
2022-10-31T00:52:05.118Z,15.68
2022-10-31T00:57:04.798Z,15.67
2022-10-31T01:02:06.267Z,15.88
2022-10-31T01:07:04.098Z,15.93
2022-10-31T01:12:05.093Z,15.93
2022-10-31T01:17:06.631Z,15.83
2022-10-31T01:22:07.884Z,15.74
2022-10-31T01:27:10.213Z,15.71
2022-10-31T01:32:10.595Z,15.35
2022-10-31T01:37:13.655Z,15.03
2022-10-31T01:42:20.525Z,14.99
2022-10-31T01:47:36.205Z,15.17
2022-10-31T01:52:46.646Z,15.00
2022-10-31T01:57:46.917Z,14.89
2022-10-31T02:02:47.359Z,14.92
2022-10-31T02:07:54.890Z,15.16
2022-10-31T02:13:06.308Z,14.71
2022-10-31T02:18:09.739Z,14.70
2022-10-31T02:23:11.901Z,14.80
2022-10-31T02:28:29.139Z,14.97
2022-10-31T02:33:40.034Z,14.87
2022-10-31T02:38:57.878Z,14.90
2022-10-31T02:44:27.804Z,14.82
2022-10-31T02:49:46.910Z,15.07
2022-10-31T02:54:48.318Z,14.83
2022-10-31T02:59:50.185Z,15.09
2022-10-31T03:05:02.216Z,14.86
2022-10-31T03:10:19.529Z,14.82
2022-10-31T03:15:44.168Z,14.67
2022-10-31T03:20:51.655Z,14.57
2022-10-31T03:25:54.985Z,14.63
2022-10-31T03:31:04.784Z,14.54
2022-10-31T03:36:16.112Z,14.28
2022-10-31T03:41:26.654Z,14.38
2022-10-31T03:52:55.203Z,14.27
2022-10-31T03:58:06.848Z,14.19
2022-10-31T04:03:11.933Z,13.73
2022-10-31T04:08:17.680Z,13.89
2022-10-31T04:13:23.317Z,14.05
2022-10-31T04:18:35.977Z,13.93
2022-10-31T04:24:06.507Z,13.65
2022-10-31T04:29:05.902Z,13.99
2022-10-31T04:34:11.992Z,13.67
2022-10-31T04:39:27.390Z,13.34
2022-10-31T04:51:17.505Z,13.19
2022-10-31T04:56:16.910Z,13.83
2022-10-31T05:01:20.142Z,13.50
2022-10-31T05:06:20.294Z,13.27
2022-10-31T05:11:19.025Z,13.47
2022-10-31T05:16:20.366Z,13.45
2022-10-31T05:21:54.778Z,13.33
2022-10-31T05:26:56.017Z,13.24
2022-10-31T05:31:57.794Z,13.44
2022-10-31T05:37:32.907Z,13.23
2022-10-31T05:42:33.460Z,13.12
2022-10-31T05:47:34.182Z,13.28
2022-10-31T05:52:59.947Z,13.22
2022-10-31T05:58:07.144Z,13.72
2022-10-31T06:08:29.521Z,13.55
2022-10-31T06:13:41.665Z,13.55
2022-10-31T06:18:52.370Z,13.71
2022-10-31T06:23:51.828Z,14.09
2022-10-31T06:29:08.718Z,13.95
2022-10-31T06:34:39.056Z,14.16
2022-10-31T06:39:39.839Z,14.50
2022-10-31T06:44:40.242Z,14.24
2022-10-31T06:49:59.951Z,14.61
2022-10-31T06:55:02.586Z,14.56
2022-10-31T07:00:10.462Z,14.82
2022-10-31T07:05:19.909Z,14.74
2022-10-31T07:10:22.905Z,15.00
2022-10-31T07:15:36.571Z,15.10
2022-10-31T07:20:43.427Z,15.24
2022-10-31T07:25:46.296Z,15.11
2022-10-31T07:36:36.886Z,15.13
2022-10-31T07:41:36.457Z,15.34
2022-10-31T07:46:34.494Z,15.32
2022-10-31T07:51:54.187Z,15.44
2022-10-31T07:57:16.088Z,15.77
2022-10-31T08:07:53.968Z,16.12
2022-10-31T08:13:14.108Z,16.15
2022-10-31T08:18:19.962Z,16.54
2022-10-31T08:24:11.305Z,16.59
2022-10-31T08:30:12.058Z,16.87
2022-10-31T08:40:54.801Z,17.33
2022-10-31T08:46:14.396Z,17.60
2022-10-31T08:51:26.233Z,17.84
2022-10-31T08:56:29.498Z,18.01
2022-10-31T09:01:39.341Z,18.38
2022-10-31T09:06:50.418Z,18.19
2022-10-31T09:12:07.249Z,18.57
2022-10-31T09:17:24.194Z,18.68
2022-10-31T09:23:21.188Z,18.91
2022-10-31T09:28:49.104Z,19.18
2022-10-31T09:33:52.627Z,19.39
2022-10-31T09:39:09.543Z,19.51
2022-10-31T09:44:44.449Z,20.06
2022-10-31T09:50:13.886Z,20.25
2022-10-31T09:55:22.184Z,20.47
2022-10-31T10:00:32.341Z,20.59
2022-10-31T10:06:02.653Z,20.72
2022-10-31T10:11:37.017Z,20.77
2022-10-31T10:17:34.246Z,20.84
2022-10-31T10:22:48.545Z,20.88
2022-10-31T10:27:47.242Z,20.79
2022-10-31T10:32:50.985Z,20.54
2022-10-31T10:37:54.088Z,20.44
2022-10-31T10:43:22.391Z,20.53
2022-10-31T10:48:32.303Z,20.61
2022-10-31T10:54:10.756Z,20.76
2022-10-31T10:59:21.640Z,20.85
2022-10-31T11:04:25.671Z,20.79
2022-10-31T11:09:23.381Z,20.95
2022-10-31T11:14:22.479Z,20.98
2022-10-31T11:19:22.022Z,21.13
2022-10-31T11:24:32.295Z,21.29
2022-10-31T11:29:30.906Z,21.36
2022-10-31T11:34:42.133Z,21.43
2022-10-31T11:39:55.188Z,21.55
2022-10-31T11:44:55.782Z,21.57
2022-10-31T11:49:55.978Z,21.65
2022-10-31T11:55:02.851Z,21.72
2022-10-31T12:00:07.008Z,21.84
2022-10-31T12:05:19.264Z,21.83
2022-10-31T12:10:28.736Z,21.96
2022-10-31T12:15:38.526Z,22.02
2022-10-31T12:20:37.443Z,22.02
2022-10-31T12:26:14.806Z,22.10
2022-10-31T12:31:42.446Z,22.10
2022-10-31T12:36:44.748Z,22.13
2022-10-31T12:41:57.480Z,22.15
2022-10-31T12:47:16.079Z,22.19
2022-10-31T12:52:29.700Z,22.23
2022-10-31T12:58:04.313Z,22.25
2022-10-31T13:03:01.613Z,22.38
2022-10-31T13:08:05.832Z,22.45
2022-10-31T13:13:17.979Z,22.43
2022-10-31T13:18:34.871Z,22.46
2022-10-31T13:23:55.277Z,22.49
2022-10-31T13:29:10.395Z,22.50
2022-10-31T13:40:21.429Z,22.58
2022-10-31T13:45:57.874Z,22.52
2022-10-31T13:50:59.554Z,22.51
2022-10-31T13:56:13.211Z,22.48
2022-10-31T14:01:21.748Z,22.40
2022-10-31T14:06:21.963Z,22.35
2022-10-31T14:11:37.309Z,22.27
2022-10-31T14:16:41.824Z,22.19
2022-10-31T14:21:44.216Z,22.03
2022-10-31T14:27:02.135Z,21.87
2022-10-31T14:32:13.170Z,21.63
2022-10-31T14:37:11.803Z,21.43
2022-10-31T14:42:32.617Z,21.30
2022-10-31T14:47:37.714Z,21.13
2022-10-31T14:52:39.152Z,21.00
2022-10-31T14:57:42.646Z,20.89
2022-10-31T15:02:47.181Z,20.78
2022-10-31T15:07:58.854Z,20.69
2022-10-31T15:12:57.978Z,20.56
2022-10-31T15:17:58.014Z,20.48
2022-10-31T15:23:00.437Z,20.40
2022-10-31T15:28:01.177Z,20.31
2022-10-31T15:32:59.476Z,20.16
2022-10-31T15:37:59.598Z,20.05
2022-10-31T15:43:08.818Z,19.89
2022-10-31T15:48:23.740Z,19.79
2022-10-31T15:59:27.529Z,19.55
2022-10-31T16:04:26.520Z,19.46
2022-10-31T16:09:28.167Z,19.35
2022-10-31T16:14:35.400Z,19.23
2022-10-31T16:19:34.631Z,19.12
2022-10-31T16:24:36.549Z,19.00
2022-10-31T16:29:51.031Z,18.90
2022-10-31T16:35:00.871Z,18.80
2022-10-31T16:40:02.682Z,18.72
2022-10-31T16:45:01.583Z,18.67
2022-10-31T16:50:28.100Z,18.59
2022-10-31T16:55:36.087Z,18.53
2022-10-31T17:00:49.103Z,18.46
2022-10-31T17:05:53.145Z,18.39
2022-10-31T17:11:06.110Z,18.27
2022-10-31T17:16:09.529Z,18.16
2022-10-31T17:21:21.215Z,18.07
2022-10-31T17:26:24.142Z,17.98
2022-10-31T17:31:34.033Z,17.88
2022-10-31T17:36:44.093Z,17.83
2022-10-31T17:41:54.584Z,17.76
2022-10-31T17:46:56.637Z,17.67
2022-10-31T17:51:55.455Z,17.58
2022-10-31T18:02:22.635Z,17.47
2022-10-31T18:07:30.595Z,17.32
2022-10-31T18:12:32.908Z,17.23
2022-10-31T18:17:32.733Z,17.18
2022-10-31T18:22:32.018Z,17.05
2022-10-31T18:27:33.939Z,17.02
2022-10-31T18:32:38.788Z,16.97
2022-10-31T18:37:37.116Z,16.88
2022-10-31T18:42:38.688Z,16.69
2022-10-31T18:47:41.292Z,16.79
2022-10-31T18:52:43.703Z,16.73
2022-10-31T18:57:45.008Z,16.70
2022-10-31T19:02:43.300Z,16.67
2022-10-31T19:07:46.735Z,16.63
2022-10-31T19:12:47.137Z,16.62
2022-10-31T19:17:50.788Z,16.57
2022-10-31T19:22:55.652Z,16.52
2022-10-31T19:27:58.911Z,16.48
2022-10-31T19:33:02.463Z,16.46
2022-10-31T19:38:05.035Z,16.44
2022-10-31T19:48:23.326Z,16.40
2022-10-31T19:53:30.171Z,16.33
2022-10-31T19:58:32.688Z,16.23
2022-10-31T20:03:32.583Z,16.18
2022-10-31T20:08:38.512Z,16.15
2022-10-31T20:14:07.704Z,16.03
2022-10-31T20:19:14.343Z,16.00
2022-10-31T20:24:13.178Z,16.00
2022-10-31T20:29:21.950Z,15.98
2022-10-31T20:34:20.452Z,16.01
2022-10-31T20:39:21.467Z,15.91
2022-10-31T20:44:20.589Z,15.64
2022-10-31T20:49:20.951Z,15.66
2022-10-31T20:54:22.824Z,15.70
2022-10-31T20:59:24.878Z,15.61
2022-10-31T21:04:23.814Z,15.60
2022-10-31T21:09:25.302Z,15.54
2022-10-31T21:14:26.155Z,15.51
2022-10-31T21:19:26.107Z,15.53
2022-10-31T21:24:28.199Z,15.47
2022-10-31T21:29:39.818Z,15.44
2022-10-31T21:34:39.523Z,15.43
2022-10-31T21:39:38.899Z,15.47
2022-10-31T21:44:44.548Z,15.35
2022-10-31T21:49:46.717Z,15.35
2022-10-31T21:54:45.540Z,15.21
2022-10-31T21:59:54.453Z,15.25
2022-10-31T22:04:54.631Z,15.11
2022-10-31T22:09:53.939Z,15.03
2022-10-31T22:14:53.101Z,14.96
2022-10-31T22:19:55.043Z,14.89
2022-10-31T22:24:55.017Z,14.85
2022-10-31T22:29:56.775Z,14.58
2022-10-31T22:34:57.767Z,14.60
2022-10-31T22:46:06.627Z,14.49
2022-10-31T22:51:16.065Z,14.24
2022-10-31T22:56:19.040Z,14.16
2022-10-31T23:01:22.372Z,14.22
2022-10-31T23:06:28.148Z,14.26
2022-10-31T23:11:42.025Z,14.27
2022-10-31T23:17:03.537Z,14.26
2022-10-31T23:22:07.427Z,14.27
2022-10-31T23:27:20.322Z,14.18
2022-10-31T23:37:38.758Z,14.09
2022-10-31T23:42:39.987Z,14.10
2022-10-31T23:47:43.404Z,14.03
2022-10-31T23:52:44.295Z,13.71
2022-10-31T23:57:42.528Z,12.86
